Keyes, Oklahoma
Current Conditions -  °F | °C
As of 8:53 PM on Saturday 22 Nov 2014 (Local Time) from KGUY Reporting Station
Clear Clear  
Wind Chill: 50°   Ceiling: Unl
Heat Index: 50°   Visibility: 10mi
Dew Point: 47°   Wind: 18mph
Humidity: 89%   Direction: 170°S
Pressure: 29.57"   Gusts: 24mph
Location:  36.81°N, 102.26°W
Report Text: KGUY 230253Z AUTO 17016G21KT 10SM CLR 10/08 A2957 RMK AO2 SLP004 T01000083 56005
Loading
Personal Weather Stations






























Interactive Weather Map New forecast layout! Learn more

10-Day Weather Forecast

Advertisements
Track Severe Weather on mobile